createdAt,value
2023-02-19T00:01:08.939Z,97795.19
2023-02-19T00:03:36.049Z,97796.97
2023-02-19T00:06:02.796Z,97784.38
2023-02-19T00:08:30.531Z,97777.09
2023-02-19T00:10:59.960Z,97768.78
2023-02-19T00:13:26.637Z,97763.94
2023-02-19T00:15:53.041Z,97753.22
2023-02-19T00:18:19.734Z,97756.34
2023-02-19T00:20:49.884Z,97754.44
2023-02-19T00:23:16.624Z,97757.59
2023-02-19T00:25:43.065Z,97752.75
2023-02-19T00:28:09.690Z,97755.09
2023-02-19T00:30:36.311Z,97752.91
2023-02-19T00:33:02.669Z,97755.00
2023-02-19T00:35:29.119Z,97744.81
2023-02-19T00:37:55.857Z,97751.22
2023-02-19T00:40:22.407Z,97730.59
2023-02-19T00:42:49.081Z,97720.19
2023-02-19T00:45:16.489Z,97715.13
2023-02-19T00:47:43.129Z,97711.31
2023-02-19T00:50:09.840Z,97701.16
2023-02-19T00:52:36.534Z,97702.47
2023-02-19T00:55:03.830Z,97699.22
2023-02-19T00:57:30.089Z,97702.34
2023-02-19T00:59:56.733Z,97707.13
2023-02-19T01:02:24.540Z,97700.16
2023-02-19T01:04:54.622Z,97688.13
2023-02-19T01:07:22.315Z,97687.56
2023-02-19T01:09:49.219Z,97680.03
2023-02-19T01:12:16.236Z,97682.16
2023-02-19T01:14:44.032Z,97677.31
2023-02-19T01:17:10.813Z,97664.22
2023-02-19T01:19:37.510Z,97674.56
2023-02-19T01:22:04.369Z,97664.41
2023-02-19T01:24:30.993Z,97667.56
2023-02-19T01:26:58.643Z,97668.81
2023-02-19T01:29:26.591Z,97662.94
2023-02-19T01:31:53.131Z,97654.38
2023-02-19T01:34:19.701Z,97650.34
2023-02-19T01:36:46.571Z,97647.13
2023-02-19T01:39:13.287Z,97634.06
2023-02-19T01:41:39.898Z,97636.97
2023-02-19T01:44:06.309Z,97634.56
2023-02-19T01:46:33.785Z,97634.22
2023-02-19T01:49:00.769Z,97637.34
2023-02-19T01:51:28.705Z,97632.03
2023-02-19T01:53:56.128Z,97625.91
2023-02-19T01:56:23.619Z,97621.38
2023-02-19T01:58:51.483Z,97622.50
2023-02-19T02:01:18.639Z,97633.56
2023-02-19T02:03:46.432Z,97632.13
2023-02-19T02:06:13.625Z,97630.91
2023-02-19T02:08:40.231Z,97633.16
2023-02-19T02:13:56.459Z,97635.59
2023-02-19T02:16:24.337Z,97644.00
2023-02-19T02:18:51.083Z,97634.75
2023-02-19T02:21:18.776Z,97646.84
2023-02-19T02:23:45.806Z,97641.34
2023-02-19T02:26:12.455Z,97636.63
2023-02-19T02:28:39.364Z,97631.16
2023-02-19T02:31:05.925Z,97632.00
2023-02-19T02:33:33.632Z,97625.38
2023-02-19T02:36:00.400Z,97623.00
2023-02-19T02:38:27.375Z,97621.72
2023-02-19T02:40:53.942Z,97623.31
2023-02-19T02:43:20.851Z,97626.81
2023-02-19T02:45:47.281Z,97621.22
2023-02-19T02:48:13.878Z,97624.13
2023-02-19T02:50:40.475Z,97628.16
2023-02-19T02:53:07.706Z,97611.34
2023-02-19T02:55:34.130Z,97623.31
2023-02-19T02:58:00.694Z,97615.56
2023-02-19T03:00:27.636Z,97617.69
2023-02-19T03:02:54.297Z,97616.31
2023-02-19T03:05:20.703Z,97611.72
2023-02-19T03:07:46.975Z,97617.56
2023-02-19T03:10:13.245Z,97606.59
2023-02-19T03:12:39.564Z,97607.06
2023-02-19T03:15:06.039Z,97598.75
2023-02-19T03:17:32.523Z,97617.91
2023-02-19T03:19:58.951Z,97610.16
2023-02-19T03:22:28.549Z,97616.00
2023-02-19T03:24:55.842Z,97616.50
2023-02-19T03:27:22.278Z,97616.97
2023-02-19T03:29:49.028Z,97618.28
2023-02-19T03:32:15.712Z,97609.97
2023-02-19T03:34:42.160Z,97613.94
2023-02-19T03:37:08.595Z,97613.38
2023-02-19T03:39:35.008Z,97616.53
2023-02-19T03:42:01.667Z,97613.28
2023-02-19T03:44:27.999Z,97604.16
2023-02-19T03:46:54.364Z,97608.97
2023-02-19T03:49:20.668Z,97610.25
2023-02-19T03:51:46.951Z,97610.25
2023-02-19T03:54:14.062Z,97611.56
2023-02-19T03:56:40.656Z,97618.75
2023-02-19T03:59:07.005Z,97621.09
2023-02-19T04:01:34.006Z,97637.28
2023-02-19T04:04:00.485Z,97642.28
2023-02-19T04:06:26.724Z,97639.88
2023-02-19T04:08:53.153Z,97648.06
2023-02-19T04:11:19.510Z,97653.91
2023-02-19T04:13:46.861Z,97658.66
2023-02-19T04:16:15.669Z,97658.09
2023-02-19T04:18:41.967Z,97661.00
2023-02-19T04:21:08.647Z,97658.00
2023-02-19T04:23:36.122Z,97663.81
2023-02-19T04:26:02.455Z,97653.66
2023-02-19T04:28:29.202Z,97657.38
2023-02-19T04:30:55.728Z,97653.34
2023-02-19T04:33:22.111Z,97661.56
2023-02-19T04:35:48.955Z,97661.00
2023-02-19T04:38:15.386Z,97666.56
2023-02-19T04:40:41.989Z,97675.59
2023-02-19T04:43:08.257Z,97676.91
2023-02-19T04:45:35.082Z,97677.13
2023-02-19T04:48:01.430Z,97677.34
2023-02-19T04:50:28.404Z,97679.47
2023-02-19T04:52:54.795Z,97690.91
2023-02-19T04:55:21.114Z,97690.34
2023-02-19T04:57:49.027Z,97698.31
2023-02-19T05:00:15.997Z,97711.09
2023-02-19T05:02:42.328Z,97698.00
2023-02-19T05:05:08.647Z,97711.31
2023-02-19T05:07:35.720Z,97724.84
2023-02-19T05:10:02.003Z,97716.28
2023-02-19T05:12:29.304Z,97706.94
2023-02-19T05:14:56.949Z,97718.66
2023-02-19T05:17:23.278Z,97723.16
2023-02-19T05:19:49.647Z,97716.28
2023-02-19T05:22:16.079Z,97720.44
2023-02-19T05:24:42.506Z,97740.06
2023-02-19T05:27:08.932Z,97748.09
2023-02-19T05:29:35.952Z,97757.00
2023-02-19T05:32:02.362Z,97759.53
2023-02-19T05:34:28.689Z,97760.41
2023-02-19T05:36:55.916Z,97745.00
2023-02-19T05:39:22.378Z,97757.34
2023-02-19T05:41:48.908Z,97771.75
2023-02-19T05:44:15.378Z,97764.75
2023-02-19T05:46:41.802Z,97759.50
2023-02-19T05:49:08.132Z,97775.06
2023-02-19T05:51:34.583Z,97767.16
2023-02-19T05:54:01.236Z,97762.34
2023-02-19T05:56:28.551Z,97770.13
2023-02-19T05:58:55.105Z,97774.66
2023-02-19T06:01:21.449Z,97769.56
2023-02-19T06:03:48.079Z,97770.03
2023-02-19T06:06:14.496Z,97772.41
2023-02-19T06:08:41.365Z,97768.66
2023-02-19T06:11:07.728Z,97766.44
2023-02-19T06:13:35.152Z,97760.28
2023-02-19T06:16:01.622Z,97786.88
2023-02-19T06:18:28.819Z,97785.53
2023-02-19T06:20:56.133Z,97787.06
2023-02-19T06:23:22.571Z,97788.88
2023-02-19T06:25:48.872Z,97795.78
2023-02-19T06:28:15.110Z,97793.28
2023-02-19T06:30:41.397Z,97798.53
2023-02-19T06:33:07.705Z,97795.00
2023-02-19T06:35:37.848Z,97801.09
2023-02-19T06:38:04.160Z,97811.41
2023-02-19T06:40:30.851Z,97810.28
2023-02-19T06:42:57.180Z,97812.09
2023-02-19T06:45:23.556Z,97813.63
2023-02-19T06:47:50.752Z,97820.72
2023-02-19T06:50:17.045Z,97820.41
2023-02-19T06:52:43.339Z,97832.59
2023-02-19T06:55:13.698Z,97828.59
2023-02-19T06:57:40.108Z,97831.97
2023-02-19T07:00:06.375Z,97833.53
2023-02-19T07:02:32.754Z,97841.19
2023-02-19T07:04:59.068Z,97841.66
2023-02-19T07:07:25.970Z,97830.66
2023-02-19T07:09:52.244Z,97828.50
2023-02-19T07:12:19.086Z,97841.50
2023-02-19T07:14:45.747Z,97842.22
2023-02-19T07:17:12.067Z,97858.72
2023-02-19T07:19:38.778Z,97855.72
2023-02-19T07:22:05.526Z,97858.25
2023-02-19T07:24:31.881Z,97869.41
2023-02-19T07:26:58.482Z,97873.38
2023-02-19T07:29:24.805Z,97875.72
2023-02-19T07:31:51.233Z,97889.25
2023-02-19T07:34:17.827Z,97888.13
2023-02-19T07:36:44.103Z,97890.22
2023-02-19T07:39:10.407Z,97901.38
2023-02-19T07:41:37.143Z,97903.44
2023-02-19T07:44:04.461Z,97915.59
2023-02-19T07:46:31.257Z,97918.50
2023-02-19T07:48:57.601Z,97925.91
2023-02-19T07:51:24.575Z,97911.22
2023-02-19T07:56:34.875Z,97931.38
2023-02-19T07:59:01.368Z,97939.84
2023-02-19T08:01:28.050Z,97943.53
2023-02-19T08:03:54.327Z,97957.44
2023-02-19T08:06:24.263Z,97966.56
2023-02-19T08:08:50.750Z,97986.69
2023-02-19T08:11:17.190Z,98001.53
2023-02-19T08:13:46.220Z,98017.97
2023-02-19T08:16:18.686Z,98035.78
2023-02-19T08:18:51.265Z,98038.75
2023-02-19T08:21:18.387Z,98047.84
2023-02-19T08:23:44.965Z,98055.69
2023-02-19T08:26:11.314Z,98062.44
2023-02-19T08:28:42.776Z,98074.31
2023-02-19T08:31:10.433Z,98074.66
2023-02-19T08:33:37.995Z,98091.81
2023-02-19T08:36:08.815Z,98100.13
2023-02-19T08:38:37.436Z,98105.53
2023-02-19T08:41:04.023Z,98101.44
2023-02-19T08:43:30.593Z,98107.25
2023-02-19T08:45:57.038Z,98117.75
2023-02-19T08:48:23.423Z,98125.84
2023-02-19T08:50:50.181Z,98125.91
2023-02-19T08:53:16.678Z,98123.06
2023-02-19T08:55:43.660Z,98124.69
2023-02-19T08:58:09.985Z,98131.66
2023-02-19T09:00:36.595Z,98131.09
2023-02-19T09:03:03.053Z,98126.22
2023-02-19T09:05:29.465Z,98126.47
2023-02-19T09:07:56.306Z,98127.81
2023-02-19T09:10:22.789Z,98135.25
2023-02-19T09:12:49.115Z,98135.75
2023-02-19T09:15:16.647Z,98131.69
2023-02-19T09:17:42.975Z,98135.13
2023-02-19T09:22:53.952Z,98134.47
2023-02-19T09:25:20.269Z,98146.72
2023-02-19T09:27:46.753Z,98141.28
2023-02-19T09:30:13.303Z,98153.84
2023-02-19T09:32:39.704Z,98158.16
2023-02-19T09:35:06.016Z,98163.25
2023-02-19T09:37:34.078Z,98171.59
2023-02-19T09:40:00.996Z,98174.19
2023-02-19T09:42:27.236Z,98165.28
2023-02-19T09:44:53.957Z,98177.00
2023-02-19T09:47:20.329Z,98181.00
2023-02-19T09:49:46.601Z,98184.69
2023-02-19T09:52:12.921Z,98190.28
2023-02-19T09:54:39.226Z,98192.38
2023-02-19T09:57:05.967Z,98204.16
2023-02-19T09:59:33.742Z,98201.47
2023-02-19T10:02:00.868Z,98214.50
2023-02-19T10:04:27.171Z,98216.00
2023-02-19T10:06:53.408Z,98216.50
2023-02-19T10:09:19.645Z,98227.44
2023-02-19T10:11:46.123Z,98224.19
2023-02-19T10:14:12.432Z,98227.59
2023-02-19T10:16:40.026Z,98237.44
2023-02-19T10:19:08.849Z,98248.38
2023-02-19T10:21:36.024Z,98244.91
2023-02-19T10:24:02.498Z,98249.41
2023-02-19T10:26:33.877Z,98246.50
2023-02-19T10:29:00.976Z,98256.16
2023-02-19T10:31:29.380Z,98269.84
2023-02-19T10:33:56.284Z,98281.09
2023-02-19T10:36:24.061Z,98277.63
2023-02-19T10:38:51.152Z,98282.13
2023-02-19T10:41:18.577Z,98293.31
2023-02-19T10:43:45.973Z,98294.84
2023-02-19T10:46:12.576Z,98290.22
2023-02-19T10:48:39.206Z,98304.31
2023-02-19T10:51:05.980Z,98307.19
2023-02-19T10:53:32.632Z,98310.91
2023-02-19T10:55:59.013Z,98322.09
2023-02-19T10:58:26.118Z,98320.69
2023-02-19T11:00:52.461Z,98330.00
2023-02-19T11:03:18.859Z,98326.75
2023-02-19T11:05:46.214Z,98333.34
2023-02-19T11:08:12.864Z,98343.47
2023-02-19T11:10:39.478Z,98354.38
2023-02-19T11:13:05.997Z,98361.81
2023-02-19T11:15:32.433Z,98358.34
2023-02-19T11:17:58.936Z,98357.28
2023-02-19T11:20:25.304Z,98355.44
2023-02-19T11:22:51.737Z,98349.03
2023-02-19T11:25:18.785Z,98357.63
2023-02-19T11:27:45.916Z,98348.00
2023-02-19T11:30:12.360Z,98346.94
2023-02-19T11:32:39.243Z,98352.28
2023-02-19T11:35:06.014Z,98355.19
2023-02-19T11:37:32.887Z,98362.16
2023-02-19T11:39:59.270Z,98359.25
2023-02-19T11:42:28.998Z,98356.38
2023-02-19T11:44:55.977Z,98368.66
2023-02-19T11:47:22.497Z,98367.59
2023-02-19T11:49:49.026Z,98372.72
2023-02-19T11:52:15.584Z,98377.00
2023-02-19T11:54:44.417Z,98383.97
2023-02-19T11:57:10.916Z,98380.50
2023-02-19T11:59:37.226Z,98383.41
2023-02-19T12:02:04.059Z,98383.41
2023-02-19T12:04:30.343Z,98381.78
2023-02-19T12:06:56.617Z,98377.25
2023-02-19T12:09:23.234Z,98382.34
2023-02-19T12:11:49.615Z,98384.19
2023-02-19T12:14:16.935Z,98380.75
2023-02-19T12:16:43.471Z,98385.03
2023-02-19T12:19:09.922Z,98382.94
2023-02-19T12:21:36.954Z,98389.88
2023-02-19T12:24:03.387Z,98380.84
2023-02-19T12:26:29.651Z,98372.59
2023-02-19T12:28:56.766Z,98371.28
2023-02-19T12:31:23.320Z,98374.78
2023-02-19T12:33:49.719Z,98380.94
2023-02-19T12:36:16.066Z,98383.63
2023-02-19T12:38:43.656Z,98384.44
2023-02-19T12:41:11.004Z,98380.69
2023-02-19T12:43:37.354Z,98389.78
2023-02-19T12:46:04.096Z,98388.72
2023-02-19T12:48:30.454Z,98395.66
2023-02-19T12:50:56.844Z,98396.50
2023-02-19T12:53:23.471Z,98399.97
2023-02-19T12:55:50.162Z,98403.44
2023-02-19T12:58:16.430Z,98409.84
2023-02-19T13:00:42.770Z,98415.78
2023-02-19T13:03:09.101Z,98409.59
2023-02-19T13:05:35.929Z,98420.06
2023-02-19T13:08:02.195Z,98430.50
2023-02-19T13:10:28.808Z,98430.50
2023-02-19T13:12:55.410Z,98433.41
2023-02-19T13:15:21.748Z,98433.41
2023-02-19T13:17:48.857Z,98433.66
2023-02-19T13:20:15.689Z,98437.16
2023-02-19T13:22:42.006Z,98437.38
2023-02-19T13:25:09.048Z,98452.81
2023-02-19T13:27:35.396Z,98455.50
2023-02-19T13:30:01.731Z,98456.56
2023-02-19T13:32:28.113Z,98453.88
2023-02-19T13:34:54.429Z,98452.25
2023-02-19T13:37:21.389Z,98453.06
2023-02-19T13:39:48.827Z,98450.16
2023-02-19T13:42:16.026Z,98449.91
2023-02-19T13:44:42.312Z,98454.19
2023-02-19T13:47:08.678Z,98466.75
2023-02-19T13:49:35.067Z,98464.88
2023-02-19T13:52:01.495Z,98469.44
2023-02-19T13:54:27.796Z,98465.13
2023-02-19T13:56:55.109Z,98478.25
2023-02-19T13:59:21.485Z,98467.78
2023-02-19T14:01:48.531Z,98473.97
2023-02-19T14:04:15.825Z,98467.78
2023-02-19T14:06:42.307Z,98460.00
2023-02-19T14:09:08.831Z,98462.09
2023-02-19T14:11:35.998Z,98460.25
2023-02-19T14:14:02.516Z,98464.78
2023-02-19T14:16:28.867Z,98465.00
2023-02-19T14:18:55.618Z,98466.91
2023-02-19T14:21:23.087Z,98472.44
2023-02-19T14:23:49.461Z,98470.00
2023-02-19T14:26:16.222Z,98477.44
2023-02-19T14:28:43.199Z,98472.91
2023-02-19T14:31:10.800Z,98477.44
2023-02-19T14:33:37.480Z,98469.66
2023-02-19T14:36:03.991Z,98468.88
2023-02-19T14:38:35.622Z,98484.91
2023-02-19T14:41:02.308Z,98484.09
2023-02-19T14:43:28.691Z,98483.03
2023-02-19T14:45:55.346Z,98476.88
2023-02-19T14:48:21.976Z,98479.56
2023-02-19T14:50:48.293Z,98465.38
2023-02-19T14:53:15.896Z,98480.34
2023-02-19T14:55:42.336Z,98484.91
2023-02-19T14:58:08.918Z,98486.75
2023-02-19T15:00:35.184Z,98488.59
2023-02-19T15:03:01.562Z,98485.94
2023-02-19T15:05:27.811Z,98488.59
2023-02-19T15:07:54.238Z,98490.25
2023-02-19T15:10:21.740Z,98503.00
2023-02-19T15:12:48.073Z,98500.34
2023-02-19T15:15:14.588Z,98495.22
2023-02-19T15:17:41.346Z,98505.09
2023-02-19T15:20:08.331Z,98507.19
2023-02-19T15:22:35.202Z,98501.84
2023-02-19T15:27:50.721Z,98484.66
2023-02-19T15:30:17.113Z,98476.88
2023-02-19T15:32:43.894Z,98476.88
2023-02-19T15:35:11.474Z,98468.28
2023-02-19T15:37:39.038Z,98474.44
2023-02-19T15:40:06.233Z,98473.63
2023-02-19T15:42:32.713Z,98481.88
2023-02-19T15:44:59.109Z,98474.91
2023-02-19T15:47:28.745Z,98470.59
2023-02-19T15:49:56.798Z,98465.50
2023-02-19T15:52:23.255Z,98463.06
2023-02-19T15:54:49.614Z,98468.63
2023-02-19T15:57:16.094Z,98480.38
2023-02-19T15:59:42.653Z,98483.25
2023-02-19T16:02:09.185Z,98491.50
2023-02-19T16:04:36.367Z,98494.41
2023-02-19T16:07:02.700Z,98484.53
2023-02-19T16:09:29.108Z,98479.44
2023-02-19T16:11:55.462Z,98483.47
2023-02-19T16:14:21.966Z,98485.91
2023-02-19T16:16:48.870Z,98490.81
2023-02-19T16:19:15.155Z,98490.34
2023-02-19T16:21:42.729Z,98498.94
2023-02-19T16:24:09.355Z,98500.91
2023-02-19T16:26:35.799Z,98503.94
2023-02-19T16:29:02.149Z,98496.50
2023-02-19T16:31:29.071Z,98501.38
2023-02-19T16:33:55.590Z,98512.41
2023-02-19T16:36:22.241Z,98517.50
2023-02-19T16:38:48.742Z,98523.44
2023-02-19T16:41:15.907Z,98526.69
2023-02-19T16:43:43.068Z,98521.09
2023-02-19T16:46:10.289Z,98519.84
2023-02-19T16:48:36.734Z,98526.81
2023-02-19T16:51:05.293Z,98528.44
2023-02-19T16:53:32.164Z,98528.22
2023-02-19T16:56:00.431Z,98538.91
2023-02-19T16:58:27.696Z,98541.34
2023-02-19T17:00:54.122Z,98541.34
2023-02-19T17:03:20.506Z,98543.75
2023-02-19T17:05:46.956Z,98552.84
2023-02-19T17:08:14.040Z,98542.94
2023-02-19T17:10:40.786Z,98553.63
2023-02-19T17:13:07.209Z,98553.41
2023-02-19T17:15:34.833Z,98556.06
2023-02-19T17:18:01.249Z,98551.31
2023-02-19T17:20:27.610Z,98560.97
2023-02-19T17:22:56.285Z,98565.25
2023-02-19T17:25:23.127Z,98559.91
2023-02-19T17:27:49.826Z,98570.34
2023-02-19T17:30:16.275Z,98575.47
2023-02-19T17:32:42.576Z,98571.19
2023-02-19T17:35:09.326Z,98573.84
2023-02-19T17:37:36.079Z,98585.38
2023-02-19T17:40:02.362Z,98584.31
2023-02-19T17:42:28.879Z,98575.69
2023-02-19T17:44:56.070Z,98575.69
2023-02-19T17:47:22.402Z,98587.22
2023-02-19T17:49:48.880Z,98579.44
2023-02-19T17:52:16.435Z,98579.44
2023-02-19T17:54:42.851Z,98577.00
2023-02-19T17:57:11.510Z,98574.56
2023-02-19T17:59:37.823Z,98577.44
2023-02-19T18:02:04.378Z,98578.72
2023-02-19T18:04:30.696Z,98582.44
2023-02-19T18:06:57.521Z,98586.75
2023-02-19T18:09:23.816Z,98580.38
2023-02-19T18:11:50.686Z,98579.91
2023-02-19T18:14:17.060Z,98591.41
2023-02-19T18:16:43.878Z,98587.31
2023-02-19T18:19:11.353Z,98582.78
2023-02-19T18:21:38.452Z,98574.97
2023-02-19T18:24:04.825Z,98565.50
2023-02-19T18:26:31.331Z,98573.19
2023-02-19T18:28:58.847Z,98567.44
2023-02-19T18:31:25.318Z,98572.44
2023-02-19T18:33:51.683Z,98571.25
2023-02-19T18:36:17.958Z,98586.94
2023-02-19T18:38:44.273Z,98583.28
2023-02-19T18:41:10.990Z,98589.31
2023-02-19T18:43:37.539Z,98593.97
2023-02-19T18:46:04.119Z,98599.41
2023-02-19T18:48:33.871Z,98602.19
2023-02-19T18:51:00.367Z,98608.13
2023-02-19T18:53:26.888Z,98612.41
2023-02-19T18:55:53.946Z,98619.38
2023-02-19T18:58:20.472Z,98617.50
2023-02-19T19:00:46.962Z,98612.41
2023-02-19T19:03:14.344Z,98619.16
2023-02-19T19:05:40.776Z,98626.69
2023-02-19T19:08:07.062Z,98623.53
2023-02-19T19:10:33.567Z,98616.31
2023-02-19T19:12:59.825Z,98618.75
2023-02-19T19:15:26.445Z,98619.00
2023-02-19T19:17:53.577Z,98619.25
2023-02-19T19:20:19.941Z,98617.28
2023-02-19T19:22:46.210Z,98608.34
2023-02-19T19:25:12.526Z,98603.63
2023-02-19T19:27:38.781Z,98610.16
2023-02-19T19:30:05.363Z,98602.28
2023-02-19T19:32:31.879Z,98601.13
2023-02-19T19:34:58.126Z,98609.41
2023-02-19T19:37:26.168Z,98597.31
2023-02-19T19:39:53.729Z,98602.34
2023-02-19T19:42:20.136Z,98610.03
2023-02-19T19:44:46.455Z,98600.81
2023-02-19T19:47:12.721Z,98603.97
2023-02-19T19:49:39.736Z,98599.56
2023-02-19T19:52:06.033Z,98602.94
2023-02-19T19:54:32.911Z,98603.19
2023-02-19T19:56:59.224Z,98605.38
2023-02-19T19:59:25.701Z,98606.66
2023-02-19T20:01:52.259Z,98615.97
2023-02-19T20:04:18.609Z,98611.25
2023-02-19T20:06:44.885Z,98608.47
2023-02-19T20:09:11.301Z,98609.91
2023-02-19T20:11:37.920Z,98616.50
2023-02-19T20:14:04.269Z,98618.81
2023-02-19T20:16:30.553Z,98620.03
2023-02-19T20:18:57.722Z,98614.88
2023-02-19T20:21:24.797Z,98620.91
2023-02-19T20:23:51.744Z,98618.88
2023-02-19T20:26:18.114Z,98626.53
2023-02-19T20:28:44.827Z,98624.25
2023-02-19T20:31:11.693Z,98627.34
2023-02-19T20:33:38.446Z,98631.25
2023-02-19T20:36:04.733Z,98633.50
2023-02-19T20:38:31.064Z,98634.41
2023-02-19T20:40:58.041Z,98636.34
2023-02-19T20:43:25.764Z,98645.75
2023-02-19T20:45:52.775Z,98643.66
2023-02-19T20:48:19.340Z,98636.19
2023-02-19T20:50:45.730Z,98637.78
2023-02-19T20:53:12.091Z,98643.16
2023-02-19T20:55:38.439Z,98631.63
2023-02-19T20:58:05.781Z,98626.75
2023-02-19T21:00:32.218Z,98614.41
2023-02-19T21:02:58.824Z,98609.53
2023-02-19T21:05:25.591Z,98601.97
2023-02-19T21:07:52.523Z,98605.97
2023-02-19T21:10:19.671Z,98601.31
2023-02-19T21:12:45.939Z,98609.03
2023-02-19T21:15:12.270Z,98609.03
2023-02-19T21:17:39.149Z,98611.50
2023-02-19T21:20:05.480Z,98611.50
2023-02-19T21:22:31.855Z,98624.34
2023-02-19T21:24:58.748Z,98607.44
2023-02-19T21:27:25.742Z,98605.00
2023-02-19T21:29:52.119Z,98610.63
2023-02-19T21:32:18.940Z,98605.97
2023-02-19T21:34:45.614Z,98615.09
2023-02-19T21:37:11.909Z,98624.16
2023-02-19T21:39:38.296Z,98615.00
2023-02-19T21:42:04.580Z,98616.53
2023-02-19T21:44:31.202Z,98620.28
2023-02-19T21:46:58.794Z,98622.97
2023-02-19T21:52:16.890Z,98620.63
2023-02-19T21:54:43.250Z,98625.72
2023-02-19T21:57:09.686Z,98630.28
2023-02-19T21:59:36.067Z,98635.38
2023-02-19T22:02:02.362Z,98628.16
2023-02-19T22:04:29.752Z,98624.41
2023-02-19T22:06:56.639Z,98619.38
2023-02-19T22:09:23.747Z,98623.44
2023-02-19T22:11:50.015Z,98623.44
2023-02-19T22:14:16.521Z,98626.94
2023-02-19T22:16:43.758Z,98628.81
2023-02-19T22:19:10.752Z,98629.06
2023-02-19T22:21:37.967Z,98635.47
2023-02-19T22:24:04.248Z,98629.84
2023-02-19T22:26:30.564Z,98632.84
2023-02-19T22:28:56.985Z,98630.16
2023-02-19T22:31:23.305Z,98641.41
2023-02-19T22:33:50.633Z,98643.25
2023-02-19T22:36:16.926Z,98636.03
2023-02-19T22:38:43.667Z,98643.03
2023-02-19T22:41:09.980Z,98641.41
2023-02-19T22:43:36.473Z,98642.22
2023-02-19T22:46:02.843Z,98643.03
2023-02-19T22:48:30.312Z,98631.00
2023-02-19T22:50:56.887Z,98640.19
2023-02-19T22:53:23.742Z,98639.94
2023-02-19T22:55:50.564Z,98624.34
2023-02-19T22:58:17.132Z,98629.13
2023-02-19T23:00:43.770Z,98625.63
2023-02-19T23:03:10.037Z,98620.59
2023-02-19T23:05:36.427Z,98619.56
2023-02-19T23:08:03.754Z,98610.44
2023-02-19T23:10:32.146Z,98616.06
2023-02-19T23:12:59.127Z,98606.63
2023-02-19T23:15:26.243Z,98598.50
2023-02-19T23:17:52.662Z,98588.78
2023-02-19T23:20:19.931Z,98580.00
2023-02-19T23:22:46.598Z,98583.91
2023-02-19T23:25:13.011Z,98580.78
2023-02-19T23:27:39.339Z,98583.84
2023-02-19T23:30:06.115Z,98585.88
2023-02-19T23:32:32.535Z,98582.53
2023-02-19T23:34:58.901Z,98565.81
2023-02-19T23:37:26.124Z,98562.72
2023-02-19T23:39:52.516Z,98574.66
2023-02-19T23:42:19.173Z,98569.66
2023-02-19T23:44:45.575Z,98572.75
2023-02-19T23:47:11.870Z,98569.66
2023-02-19T23:49:38.130Z,98566.50
2023-02-19T23:52:05.781Z,98566.88
2023-02-19T23:54:32.134Z,98558.16
2023-02-19T23:56:58.492Z,98557.50
2023-02-19T23:59:25.607Z,98565.91
